createdAt,value
2022-11-20T00:03:20.938Z,15.98
2022-11-20T00:08:23.736Z,15.45
2022-11-20T00:13:26.597Z,14.88
2022-11-20T00:18:31.416Z,15.57
2022-11-20T00:23:34.724Z,13.65
2022-11-20T00:28:38.100Z,15.18
2022-11-20T00:33:42.516Z,16.40
2022-11-20T00:38:46.383Z,17.08
2022-11-20T00:43:49.679Z,16.23
2022-11-20T00:48:54.053Z,16.63
2022-11-20T00:53:58.322Z,18.90
2022-11-20T00:59:02.608Z,16.30
2022-11-20T01:04:07.474Z,16.42
2022-11-20T01:09:13.245Z,15.65
2022-11-20T01:14:18.851Z,14.43
2022-11-20T01:19:25.518Z,14.88
2022-11-20T01:24:28.475Z,15.52
2022-11-20T01:29:31.402Z,14.13
2022-11-20T01:34:35.610Z,16.63
2022-11-20T01:39:38.365Z,15.48
2022-11-20T01:44:53.829Z,15.90
2022-11-20T01:50:03.548Z,16.52
2022-11-20T01:55:11.206Z,17.63
2022-11-20T02:00:17.235Z,17.75
2022-11-20T02:05:26.860Z,17.05
2022-11-20T02:10:30.399Z,16.77
2022-11-20T02:15:34.921Z,19.02
2022-11-20T02:20:39.468Z,17.23
2022-11-20T02:25:45.629Z,17.88
2022-11-20T02:30:48.472Z,18.10
2022-11-20T02:35:51.494Z,16.88
2022-11-20T02:40:56.030Z,16.77
2022-11-20T02:45:58.873Z,16.25
2022-11-20T02:51:01.774Z,15.13
2022-11-20T02:56:06.819Z,18.40
2022-11-20T03:01:09.890Z,16.85
2022-11-20T03:06:12.663Z,17.77
2022-11-20T03:11:16.870Z,16.15
2022-11-20T03:16:21.278Z,16.35
2022-11-20T03:21:24.048Z,16.90
2022-11-20T03:26:29.128Z,17.52
2022-11-20T03:31:33.461Z,17.27
2022-11-20T03:36:36.741Z,16.60
2022-11-20T03:41:44.378Z,18.40
2022-11-20T03:46:47.232Z,17.10
2022-11-20T03:51:50.050Z,18.00
2022-11-20T03:56:54.460Z,18.20
2022-11-20T04:01:57.255Z,18.83
2022-11-20T04:07:00.167Z,18.08
2022-11-20T04:12:04.705Z,18.65
2022-11-20T04:17:07.517Z,18.80
2022-11-20T04:22:12.436Z,18.48
2022-11-20T04:27:16.549Z,20.10
2022-11-20T04:32:19.360Z,20.15
2022-11-20T04:37:22.077Z,21.85
2022-11-20T04:42:32.240Z,21.38
2022-11-20T04:47:35.031Z,20.13
2022-11-20T04:52:37.909Z,20.90
2022-11-20T04:57:42.191Z,20.25
2022-11-20T05:02:44.985Z,21.92
2022-11-20T05:07:47.745Z,22.88
2022-11-20T05:12:51.983Z,22.95
2022-11-20T05:17:55.218Z,22.27
2022-11-20T05:22:58.898Z,22.38
2022-11-20T05:28:03.045Z,23.25
2022-11-20T05:33:06.077Z,23.55
2022-11-20T05:38:09.049Z,22.73
2022-11-20T05:43:13.180Z,25.13
2022-11-20T05:48:16.009Z,22.27
2022-11-20T05:53:19.137Z,22.08
2022-11-20T05:58:23.423Z,22.70
2022-11-20T06:03:26.250Z,24.50
2022-11-20T06:08:29.412Z,24.02
2022-11-20T06:13:35.254Z,25.15
2022-11-20T06:18:41.341Z,22.27
2022-11-20T06:23:44.476Z,25.55
2022-11-20T06:28:50.849Z,24.63
2022-11-20T06:33:54.623Z,25.90
2022-11-20T06:38:57.475Z,25.88
2022-11-20T06:44:01.696Z,25.65
2022-11-20T06:49:04.582Z,26.35
2022-11-20T06:54:07.473Z,29.67
2022-11-20T06:59:11.936Z,26.52
2022-11-20T07:04:14.760Z,24.88
2022-11-20T07:09:17.593Z,26.85
2022-11-20T07:14:21.957Z,26.00
2022-11-20T07:19:24.700Z,27.67
2022-11-20T07:24:27.565Z,32.17
2022-11-20T07:29:31.873Z,25.05
2022-11-20T07:34:34.692Z,37.90
2022-11-20T07:39:37.589Z,28.00
2022-11-20T07:44:41.854Z,29.55
2022-11-20T07:49:44.810Z,31.30
2022-11-20T07:54:47.659Z,30.08
2022-11-20T07:59:51.826Z,27.13
2022-11-20T08:04:54.714Z,29.20
2022-11-20T08:09:57.482Z,27.48
2022-11-20T08:15:01.643Z,28.40
2022-11-20T08:20:05.606Z,27.08
2022-11-20T08:25:09.339Z,27.52
2022-11-20T08:30:15.296Z,27.65
2022-11-20T08:35:18.200Z,32.00
2022-11-20T08:40:21.038Z,35.03
2022-11-20T08:45:28.468Z,56.90
2022-11-20T08:50:35.520Z,26.75
2022-11-20T08:55:38.295Z,27.48
2022-11-20T09:00:42.474Z,27.08
2022-11-20T09:05:45.349Z,25.73
2022-11-20T09:10:52.853Z,26.25
2022-11-20T09:15:57.594Z,25.17
2022-11-20T09:21:01.061Z,24.42
2022-11-20T09:26:05.183Z,25.75
2022-11-20T09:31:11.065Z,26.40
2022-11-20T09:36:13.873Z,26.15
2022-11-20T09:41:37.520Z,25.65
2022-11-20T09:46:51.326Z,22.45
2022-11-20T09:52:00.251Z,23.15
2022-11-20T09:57:07.492Z,24.42
2022-11-20T10:02:19.518Z,22.27
2022-11-20T10:07:33.675Z,29.40
2022-11-20T10:13:03.050Z,22.75
2022-11-20T10:18:25.494Z,23.58
2022-11-20T10:23:51.972Z,27.48
2022-11-20T10:29:21.012Z,22.48
2022-11-20T10:34:30.104Z,23.15
2022-11-20T10:39:38.934Z,20.98
2022-11-20T10:45:11.915Z,21.05
2022-11-20T10:50:22.639Z,21.60
2022-11-20T10:55:34.977Z,23.17
2022-11-20T11:00:37.917Z,22.67
2022-11-20T11:05:49.029Z,19.15
2022-11-20T11:10:55.759Z,20.58
2022-11-20T11:15:59.525Z,19.45
2022-11-20T11:21:06.183Z,17.60
2022-11-20T11:26:21.448Z,19.50
2022-11-20T11:31:25.957Z,16.45
2022-11-20T11:36:31.261Z,17.25
2022-11-20T11:41:36.819Z,15.93
2022-11-20T11:46:41.309Z,16.23
2022-11-20T11:52:01.607Z,13.90
2022-11-20T11:57:10.694Z,13.77
2022-11-20T12:02:24.941Z,13.05
2022-11-20T12:07:46.420Z,13.65
2022-11-20T12:12:54.646Z,11.73
2022-11-20T12:17:57.663Z,13.95
2022-11-20T12:23:11.833Z,16.80
2022-11-20T12:28:47.752Z,14.02
2022-11-20T12:34:06.844Z,15.75
2022-11-20T12:39:22.817Z,15.32
2022-11-20T12:45:02.760Z,14.83
2022-11-20T12:50:16.952Z,15.38
2022-11-20T12:55:34.857Z,15.40
2022-11-20T13:00:45.925Z,13.60
2022-11-20T13:05:58.033Z,13.68
2022-11-20T13:11:10.842Z,14.73
2022-11-20T13:16:22.101Z,14.35
2022-11-20T13:21:38.383Z,13.50
2022-11-20T13:26:42.646Z,13.40
2022-11-20T13:31:47.502Z,16.50
2022-11-20T13:36:52.632Z,19.75
2022-11-20T13:41:59.039Z,18.60
2022-11-20T13:47:01.998Z,21.10
2022-11-20T13:52:29.140Z,18.17
2022-11-20T14:03:03.396Z,20.33
2022-11-20T14:08:08.176Z,28.80
2022-11-20T14:13:19.595Z,21.83
2022-11-20T14:18:23.789Z,22.50
2022-11-20T14:23:30.251Z,22.50
2022-11-20T14:28:34.679Z,20.15
2022-11-20T14:33:39.001Z,27.20
2022-11-20T14:38:43.475Z,20.70
2022-11-20T14:43:51.998Z,22.73
2022-11-20T14:48:57.630Z,22.10
2022-11-20T14:54:14.048Z,22.38
2022-11-20T14:59:25.775Z,20.57
2022-11-20T15:04:29.164Z,31.23
2022-11-20T15:09:32.359Z,21.92
2022-11-20T15:14:38.938Z,20.75
2022-11-20T15:19:41.790Z,25.55
2022-11-20T15:24:45.059Z,23.45
2022-11-20T15:29:49.198Z,27.38
2022-11-20T15:34:52.216Z,28.10
2022-11-20T15:39:54.964Z,25.88
2022-11-20T15:44:59.239Z,24.40
2022-11-20T15:50:02.052Z,28.10
2022-11-20T15:55:09.857Z,27.38
2022-11-20T16:00:19.333Z,26.75
2022-11-20T16:05:26.972Z,31.92
2022-11-20T16:10:29.857Z,26.13
2022-11-20T16:15:49.416Z,30.90
2022-11-20T16:20:55.189Z,56.65
2022-11-20T16:25:58.058Z,27.42
2022-11-20T16:31:11.780Z,34.92
2022-11-20T16:36:17.618Z,25.95
2022-11-20T16:41:20.497Z,31.75
2022-11-20T16:46:26.161Z,26.27
2022-11-20T16:51:32.161Z,35.17
2022-11-20T16:56:35.168Z,37.40
2022-11-20T17:01:41.760Z,32.33
2022-11-20T17:06:45.743Z,30.55
2022-11-20T17:11:49.886Z,22.88
2022-11-20T17:16:54.350Z,21.35
2022-11-20T17:21:57.154Z,23.00
2022-11-20T17:26:59.995Z,25.52
2022-11-20T17:32:04.090Z,20.05
2022-11-20T17:37:06.813Z,22.00
2022-11-20T17:42:29.349Z,19.17
2022-11-20T17:47:36.431Z,17.25
2022-11-20T17:57:56.523Z,18.17
2022-11-20T18:03:00.820Z,19.50
2022-11-20T18:08:03.644Z,19.25
2022-11-20T18:13:06.498Z,43.40
2022-11-20T18:18:10.921Z,24.02
2022-11-20T18:23:13.699Z,28.17
2022-11-20T18:28:16.404Z,23.08
2022-11-20T18:33:25.457Z,10.05
2022-11-20T18:38:31.022Z,9.95
2022-11-20T18:43:51.537Z,20.17
2022-11-20T18:48:55.794Z,8.15
2022-11-20T18:53:59.572Z,2.45
2022-11-20T18:59:03.236Z,2.88
2022-11-20T19:04:10.115Z,2.80
2022-11-20T19:09:14.401Z,2.05
2022-11-20T19:14:17.192Z,3.80
2022-11-20T19:19:21.661Z,2.13
2022-11-20T19:24:24.940Z,2.30
2022-11-20T19:29:28.664Z,2.45
2022-11-20T19:34:33.015Z,2.33
2022-11-20T19:39:37.239Z,2.25
2022-11-20T19:44:40.157Z,3.67
2022-11-20T19:49:44.714Z,4.53
2022-11-20T19:54:47.530Z,1.50
2022-11-20T19:59:50.446Z,1.85
2022-11-20T20:04:54.659Z,3.03
2022-11-20T20:09:57.512Z,1.35
2022-11-20T20:15:00.559Z,1.33
2022-11-20T20:20:05.474Z,2.65
2022-11-20T20:25:08.953Z,2.28
2022-11-20T20:30:12.713Z,1.25
2022-11-20T20:35:17.022Z,1.60
2022-11-20T20:40:20.141Z,1.50
2022-11-20T20:45:23.451Z,2.20
2022-11-20T20:50:27.586Z,1.65
2022-11-20T20:55:30.995Z,1.60
2022-11-20T21:00:33.901Z,1.55
2022-11-20T21:05:38.064Z,1.80
2022-11-20T21:10:40.870Z,1.60
2022-11-20T21:15:44.374Z,1.83
2022-11-20T21:21:06.908Z,1.75
2022-11-20T21:26:11.009Z,1.73
2022-11-20T21:31:15.779Z,1.35
2022-11-20T21:36:21.764Z,1.63
2022-11-20T21:41:26.345Z,1.48
2022-11-20T21:46:29.329Z,1.38
2022-11-20T21:51:33.917Z,4.38
2022-11-20T21:56:36.785Z,2.10
2022-11-20T22:01:40.236Z,3.88
2022-11-20T22:06:44.472Z,4.50
2022-11-20T22:11:47.310Z,2.08
2022-11-20T22:16:51.283Z,1.77
2022-11-20T22:21:55.411Z,1.55
2022-11-20T22:26:58.434Z,1.70
2022-11-20T22:32:01.245Z,1.60
2022-11-20T22:37:05.329Z,2.83
2022-11-20T22:42:08.157Z,1.40
2022-11-20T22:47:11.584Z,2.00
2022-11-20T22:52:15.835Z,1.63
2022-11-20T22:57:18.846Z,1.30
2022-11-20T23:02:21.569Z,2.35
2022-11-20T23:07:26.929Z,1.73
2022-11-20T23:12:29.682Z,1.33
2022-11-20T23:17:32.373Z,2.95
2022-11-20T23:22:36.586Z,1.33
2022-11-20T23:27:39.312Z,1.40
2022-11-20T23:32:42.167Z,2.00
2022-11-20T23:37:46.244Z,1.48
2022-11-20T23:43:02.841Z,2.42
2022-11-20T23:48:06.446Z,1.27
2022-11-20T23:53:11.534Z,2.03
2022-11-20T23:58:15.252Z,1.63
